Time;durP1;ratioP1;P1;durP2;ratioP2;P2;SDS_P1;SDS_P2;PMS_P1;PMS_P2;Temp;Humidity;BMP_temperature;BMP_pressure;BME280_temperature;BME280_humidity;BME280_pressure;Samples;Min_cycle;Max_cycle;Signal;HPM_P1;HPM_P2
2023/05/15 00:00:50;;;;;;;31.17;20.77;;;9.20;99.90;;;;;;5087050;28;20032;-71
2023/05/15 00:03:16;;;;;;;33.83;21.92;;;9.20;99.90;;;;;;5089714;28;20036;-71
2023/05/15 00:05:42;;;;;;;30.98;21.90;;;9.20;99.90;;;;;;5071985;28;20126;-71
2023/05/15 00:08:08;;;;;;;29.37;19.63;;;9.20;99.90;;;;;;5073045;28;20463;-72
2023/05/15 00:10:33;;;;;;;29.57;21.40;;;9.20;99.90;;;;;;5088874;28;20042;-72
2023/05/15 00:12:59;;;;;;;32.10;22.37;;;9.30;99.90;;;;;;5072779;28;20051;-72
2023/05/15 00:15:25;;;;;;;30.67;20.77;;;9.30;99.90;;;;;;5089787;28;20036;-72
2023/05/15 00:17:50;;;;;;;32.33;22.77;;;9.40;99.90;;;;;;5072891;28;20058;-72
2023/05/15 00:20:16;;;;;;;34.67;23.27;;;9.40;99.90;;;;;;5087425;28;20403;-72
2023/05/15 00:22:42;;;;;;;36.73;23.10;;;9.40;99.90;;;;;;5089141;28;20059;-72
2023/05/15 00:25:08;;;;;;;34.83;21.97;;;9.40;99.90;;;;;;5089461;28;20176;-72
2023/05/15 00:27:34;;;;;;;34.88;22.35;;;9.50;99.90;;;;;;5089431;28;20460;-72
2023/05/15 00:29:59;;;;;;;39.57;22.70;;;9.50;99.90;;;;;;5086533;28;20118;-72
2023/05/15 00:32:25;;;;;;;36.87;21.53;;;9.60;99.90;;;;;;5089505;28;20086;-72
2023/05/15 00:34:51;;;;;;;33.77;22.50;;;9.60;99.90;;;;;;5089326;28;20044;-72
2023/05/15 00:37:16;;;;;;;32.30;21.77;;;9.60;99.90;;;;;;5072444;28;20031;-72
2023/05/15 00:39:42;;;;;;;31.87;20.93;;;9.60;99.90;;;;;;5072129;28;20058;-72
2023/05/15 00:42:08;;;;;;;29.50;20.40;;;9.60;99.90;;;;;;5088730;28;20514;-72
2023/05/15 00:44:35;;;;;;;32.47;20.77;;;9.60;99.90;;;;;;5093386;28;20048;-72
2023/05/15 00:47:02;;;;;;;33.47;21.70;;;9.60;99.90;;;;;;5070557;28;20089;-72
2023/05/15 00:49:29;;;;;;;32.45;21.13;;;9.60;99.90;;;;;;5071846;28;20056;-72
2023/05/15 00:52:00;;;;;;;31.50;21.48;;;9.60;99.90;;;;;;5088847;28;20500;-72
2023/05/15 00:54:26;;;;;;;32.30;21.05;;;9.60;99.90;;;;;;5075726;28;20040;-72
2023/05/15 00:56:58;;;;;;;32.10;21.30;;;9.60;99.90;;;;;;5089142;28;20039;-72
2023/05/15 00:59:33;;;;;;;28.23;20.20;;;9.50;99.90;;;;;;5067175;28;20119;-72
2023/05/15 01:01:59;;;;;;;29.50;21.08;;;9.50;99.90;;;;;;5069415;28;20039;-72
2023/05/15 01:04:25;;;;;;;30.43;21.13;;;9.50;99.90;;;;;;5087988;28;20518;-72
2023/05/15 01:06:54;;;;;;;32.77;21.07;;;9.50;99.90;;;;;;5088029;28;20373;-72
2023/05/15 01:09:22;;;;;;;30.83;20.65;;;9.40;99.90;;;;;;5071550;28;20369;-72
2023/05/15 01:11:52;;;;;;;32.20;21.83;;;9.30;99.90;;;;;;5087994;28;20146;-72
2023/05/15 01:14:18;;;;;;;31.10;21.00;;;9.30;99.90;;;;;;5087690;28;20036;-72
2023/05/15 01:16:44;;;;;;;31.93;21.23;;;9.20;99.90;;;;;;5072937;28;20047;-72
2023/05/15 01:19:09;;;;;;;32.00;22.70;;;9.20;99.90;;;;;;5071660;28;20185;-72
2023/05/15 01:21:35;;;;;;;33.73;22.17;;;9.10;99.90;;;;;;5088368;28;20143;-72
2023/05/15 01:24:38;;;;;;;33.57;22.50;;;9.10;99.90;;;;;;5088051;28;20044;-72
2023/05/15 01:27:25;;;;;;;33.63;22.15;;;9.10;99.90;;;;;;5087323;28;20040;-72
2023/05/15 01:30:11;;;;;;;35.78;23.08;;;9.10;99.90;;;;;;5088178;28;20048;-72
2023/05/15 01:33:05;;;;;;;36.30;22.10;;;9.10;99.90;;;;;;5087988;28;20044;-72
2023/05/15 01:36:05;;;;;;;33.58;22.20;;;9.20;99.90;;;;;;5080390;28;20036;-72
2023/05/15 01:38:51;;;;;;;32.20;21.58;;;9.10;99.90;;;;;;5066383;28;20626;-72
2023/05/15 01:41:23;;;;;;;31.02;21.33;;;9.10;99.90;;;;;;5088340;28;20106;-72
2023/05/15 01:44:10;;;;;;;33.05;21.38;;;9.10;99.90;;;;;;5087786;28;20096;-72
2023/05/15 01:46:41;;;;;;;35.92;21.80;;;9.10;99.90;;;;;;5069767;28;20087;-72
2023/05/15 01:49:09;;;;;;;30.95;21.30;;;9.10;99.90;;;;;;5071618;28;20400;-70
2023/05/15 01:51:37;;;;;;;31.05;20.55;;;9.10;99.90;;;;;;5087462;28;20052;-72
2023/05/15 01:54:05;;;;;;;31.95;18.90;;;9.20;99.90;;;;;;5068086;28;20400;-70
2023/05/15 01:56:31;;;;;;;29.50;18.77;;;9.20;99.90;;;;;;5087590;28;20449;-70
2023/05/15 01:58:59;;;;;;;33.95;18.10;;;9.20;99.90;;;;;;5087429;28;20042;-70
2023/05/15 02:01:26;;;;;;;31.13;17.55;;;9.20;99.90;;;;;;5071027;28;20051;-70
2023/05/15 02:03:54;;;;;;;33.22;18.67;;;9.30;99.90;;;;;;5086868;28;20059;-70
2023/05/15 02:06:20;;;;;;;36.88;19.45;;;9.30;99.90;;;;;;5084514;28;20031;-70
2023/05/15 02:08:47;;;;;;;29.45;18.73;;;9.30;99.90;;;;;;5070283;28;20044;-70
2023/05/15 02:11:13;;;;;;;31.50;19.50;;;9.30;99.90;;;;;;5087152;28;20515;-70
2023/05/15 02:13:41;;;;;;;28.40;17.90;;;9.30;99.90;;;;;;5068985;28;20115;-70
2023/05/15 02:16:06;;;;;;;23.92;16.65;;;9.30;99.90;;;;;;5087005;28;20135;-70
2023/05/15 02:18:32;;;;;;;27.93;18.13;;;9.30;99.90;;;;;;5087639;28;20115;-70
2023/05/15 02:20:59;;;;;;;24.60;17.10;;;9.30;99.90;;;;;;5087262;28;20044;-70
2023/05/15 02:23:25;;;;;;;28.58;17.70;;;9.30;99.90;;;;;;5090549;28;20047;-70
2023/05/15 02:26:11;;;;;;;26.20;18.33;;;9.30;99.90;;;;;;5073078;28;20112;-71
2023/05/15 02:29:14;;;;;;;30.17;18.15;;;9.30;99.90;;;;;;5090436;28;20035;-71
2023/05/15 02:32:05;;;;;;;24.40;16.50;;;9.40;99.90;;;;;;5073430;28;20043;-71
2023/05/15 02:34:56;;;;;;;26.40;17.25;;;9.40;99.90;;;;;;5090208;28;20062;-71
2023/05/15 02:37:28;;;;;;;27.17;17.33;;;9.30;99.90;;;;;;5089566;28;20594;-71
2023/05/15 02:39:58;;;;;;;24.40;16.95;;;9.20;99.90;;;;;;5090507;28;20495;-71
2023/05/15 02:42:26;;;;;;;24.67;17.40;;;9.20;99.90;;;;;;5092877;28;20050;-71
2023/05/15 02:44:53;;;;;;;25.48;16.60;;;9.00;99.90;;;;;;5073366;28;20039;-71
2023/05/15 02:47:21;;;;;;;25.00;16.85;;;8.90;99.90;;;;;;5090810;28;20055;-71
2023/05/15 02:49:48;;;;;;;23.27;17.05;;;8.80;99.90;;;;;;5090034;28;20047;-71
2023/05/15 02:52:14;;;;;;;22.17;16.55;;;8.70;99.90;;;;;;5090379;28;20044;-71
2023/05/15 02:54:40;;;;;;;25.52;16.77;;;8.70;99.90;;;;;;5073604;28;20049;-71
2023/05/15 02:57:06;;;;;;;25.43;17.80;;;8.60;99.90;;;;;;5089748;28;20035;-71
2023/05/15 02:59:33;;;;;;;27.50;17.27;;;8.50;99.90;;;;;;5072970;28;20392;-71
2023/05/15 03:01:59;;;;;;;25.13;17.25;;;8.40;99.90;;;;;;5090041;28;20051;-71
2023/05/15 03:04:25;;;;;;;28.20;18.07;;;8.40;99.90;;;;;;5073256;28;20434;-71
2023/05/15 03:06:50;;;;;;;26.30;18.07;;;8.30;99.90;;;;;;5070969;28;20402;-71
2023/05/15 03:09:16;;;;;;;28.73;19.17;;;8.30;99.90;;;;;;5073447;28;20039;-71
2023/05/15 03:11:42;;;;;;;29.37;18.97;;;8.30;99.90;;;;;;5090004;28;20036;-71
2023/05/15 03:14:08;;;;;;;28.30;19.17;;;8.20;99.90;;;;;;5090248;28;20452;-71
2023/05/15 03:16:35;;;;;;;29.20;19.30;;;8.20;99.90;;;;;;5090334;28;20035;-71
2023/05/15 03:19:01;;;;;;;34.58;19.23;;;8.10;99.90;;;;;;5090124;28;20475;-71
2023/05/15 03:21:27;;;;;;;28.03;18.17;;;8.10;99.90;;;;;;5072618;28;20052;-71
2023/05/15 03:23:52;;;;;;;27.50;19.27;;;8.10;99.90;;;;;;5093106;28;20202;-72
2023/05/15 03:26:18;;;;;;;28.33;19.20;;;8.00;99.90;;;;;;5077182;28;20051;-72
2023/05/15 03:28:44;;;;;;;29.47;19.30;;;8.00;99.90;;;;;;5077019;28;20048;-71
2023/05/15 03:31:10;;;;;;;25.00;17.47;;;7.90;99.90;;;;;;5093860;28;20102;-71
2023/05/15 03:33:37;;;;;;;29.43;18.90;;;7.90;99.90;;;;;;5093451;28;20067;-71
2023/05/15 03:36:04;;;;;;;33.15;19.90;;;7.90;99.90;;;;;;5092697;28;20054;-71
2023/05/15 03:38:29;;;;;;;27.95;18.92;;;7.90;99.90;;;;;;5089785;28;20031;-71
2023/05/15 03:40:55;;;;;;;27.03;18.93;;;7.90;99.90;;;;;;5069113;27;20088;-71
2023/05/15 03:43:20;;;;;;;31.00;20.83;;;7.90;99.90;;;;;;5080188;28;20051;-71
2023/05/15 03:45:46;;;;;;;31.03;21.03;;;7.90;99.90;;;;;;5075726;28;20069;-71
2023/05/15 03:48:12;;;;;;;34.33;20.77;;;7.90;99.90;;;;;;5092879;28;20483;-71
2023/05/15 03:50:39;;;;;;;30.53;19.83;;;8.00;99.90;;;;;;5093373;28;20162;-71
2023/05/15 03:53:04;;;;;;;35.50;21.15;;;8.00;99.90;;;;;;5093343;28;20096;-71
2023/05/15 03:55:30;;;;;;;31.70;20.37;;;7.90;99.90;;;;;;5076068;28;20031;-71
2023/05/15 03:57:57;;;;;;;31.13;21.40;;;8.00;99.90;;;;;;5075740;28;20466;-71
2023/05/15 04:00:22;;;;;;;32.30;21.23;;;7.90;99.90;;;;;;5093781;28;20571;-71
2023/05/15 04:02:48;;;;;;;30.93;20.63;;;8.00;99.90;;;;;;5087251;28;20076;-71
2023/05/15 04:05:14;;;;;;;34.03;20.77;;;8.00;99.90;;;;;;5092529;28;20044;-71
2023/05/15 04:07:40;;;;;;;32.27;20.33;;;8.00;99.90;;;;;;5092596;28;20050;-71
2023/05/15 04:10:06;;;;;;;31.30;20.27;;;8.00;99.90;;;;;;5093115;28;20044;-71
2023/05/15 04:12:33;;;;;;;28.77;20.27;;;8.00;99.90;;;;;;5075956;28;20035;-71
2023/05/15 04:15:21;;;;;;;30.65;20.73;;;8.10;99.90;;;;;;5092621;28;20047;-72
2023/05/15 04:17:50;;;;;;;30.67;20.40;;;8.10;99.90;;;;;;5068717;28;20091;-71
2023/05/15 04:20:18;;;;;;;30.27;20.00;;;8.20;99.90;;;;;;5093231;28;20097;-71
2023/05/15 04:22:44;;;;;;;35.50;21.98;;;8.30;99.90;;;;;;5091201;28;20127;-71
2023/05/15 04:25:13;;;;;;;33.63;20.73;;;8.30;99.90;;;;;;5092634;28;20055;-71
2023/05/15 04:27:39;;;;;;;33.33;21.48;;;8.40;99.90;;;;;;5092706;28;20504;-71
2023/05/15 04:30:06;;;;;;;30.33;19.70;;;8.50;99.90;;;;;;5092011;28;20087;-71
2023/05/15 04:32:32;;;;;;;31.13;20.95;;;8.60;99.90;;;;;;5092038;28;20192;-71
2023/05/15 04:35:04;;;;;;;34.42;21.95;;;8.70;99.90;;;;;;5092500;28;20035;-71
2023/05/15 04:37:30;;;;;;;34.20;22.45;;;8.80;99.90;;;;;;5076032;28;20432;-71
2023/05/15 04:39:56;;;;;;;34.17;22.95;;;8.90;99.90;;;;;;5092160;28;20483;-71
2023/05/15 04:42:22;;;;;;;36.72;22.88;;;9.00;99.90;;;;;;5070771;28;20518;-71
2023/05/15 04:44:48;;;;;;;32.27;22.07;;;9.10;99.90;;;;;;5074951;28;20035;-71
2023/05/15 04:47:14;;;;;;;32.87;21.57;;;9.30;99.90;;;;;;5075457;28;20568;-71
2023/05/15 04:49:43;;;;;;;28.73;20.63;;;9.40;99.90;;;;;;5075048;28;20032;-71
2023/05/15 04:52:08;;;;;;;27.60;19.15;;;9.50;99.90;;;;;;5074911;28;20046;-71
2023/05/15 04:54:34;;;;;;;30.17;20.27;;;9.70;99.90;;;;;;5092260;28;20036;-71
2023/05/15 04:57:00;;;;;;;30.47;19.60;;;10.00;99.90;;;;;;5075366;28;20046;-71
2023/05/15 04:59:27;;;;;;;31.57;21.13;;;10.30;99.90;;;;;;5091090;28;20433;-71
2023/05/15 05:01:53;;;;;;;26.13;18.80;;;10.50;99.90;;;;;;5087201;28;20070;-71
2023/05/15 05:04:19;;;;;;;30.13;20.70;;;10.50;99.90;;;;;;5092124;28;20455;-71
2023/05/15 05:06:48;;;;;;;32.40;21.47;;;10.50;99.90;;;;;;5087676;28;20390;-71
2023/05/15 05:09:13;;;;;;;29.85;21.27;;;10.40;99.90;;;;;;5085699;28;20043;-71
2023/05/15 05:11:42;;;;;;;27.63;20.60;;;10.60;99.90;;;;;;5068853;28;20561;-71
2023/05/15 05:14:13;;;;;;;29.35;20.85;;;10.80;99.90;;;;;;5074417;28;20031;-71
2023/05/15 05:16:38;;;;;;;28.25;20.05;;;10.90;99.90;;;;;;5082803;28;20043;-71
2023/05/15 05:19:05;;;;;;;25.83;19.20;;;11.20;99.90;;;;;;5074699;28;20407;-71
2023/05/15 05:21:31;;;;;;;23.70;18.20;;;11.30;99.90;;;;;;5090931;28;20082;-71
2023/05/15 05:23:57;;;;;;;22.55;17.75;;;11.40;99.90;;;;;;5074109;28;20047;-71
2023/05/15 05:26:23;;;;;;;24.55;17.80;;;11.30;99.90;;;;;;5090699;28;20035;-71
2023/05/15 05:28:49;;;;;;;21.33;16.97;;;11.20;99.90;;;;;;5074780;28;20450;-71
2023/05/15 05:31:15;;;;;;;24.27;17.93;;;11.20;99.90;;;;;;5090683;28;20549;-71
2023/05/15 05:33:41;;;;;;;20.57;17.53;;;11.10;99.90;;;;;;5089149;28;20047;-71
2023/05/15 05:36:07;;;;;;;23.83;18.13;;;11.10;99.90;;;;;;5074138;28;20278;-71
2023/05/15 05:38:33;;;;;;;23.43;17.93;;;11.00;99.90;;;;;;5074684;28;20706;-71
2023/05/15 05:41:00;;;;;;;24.47;17.40;;;11.10;99.90;;;;;;5090736;27;20122;-71
2023/05/15 05:43:26;;;;;;;22.70;16.97;;;11.10;99.90;;;;;;5090871;28;20775;-72
2023/05/15 05:45:52;;;;;;;22.30;17.23;;;11.10;99.90;;;;;;5091364;28;20798;-70
2023/05/15 05:48:18;;;;;;;22.97;17.43;;;11.20;99.90;;;;;;5074198;28;20308;-70
2023/05/15 05:50:43;;;;;;;23.13;16.67;;;11.30;99.90;;;;;;5091531;28;20039;-72
2023/05/15 05:53:09;;;;;;;22.47;18.20;;;11.40;99.90;;;;;;5091043;28;20043;-72
2023/05/15 05:55:35;;;;;;;21.07;17.60;;;11.50;99.90;;;;;;5091339;28;20043;-72
2023/05/15 05:58:01;;;;;;;22.13;18.07;;;11.70;99.90;;;;;;5091235;28;20397;-72
2023/05/15 06:00:27;;;;;;;24.87;18.87;;;11.70;99.90;;;;;;5090789;28;20126;-72
2023/05/15 06:02:56;;;;;;;20.23;17.90;;;11.80;99.90;;;;;;5073624;28;20365;-71
2023/05/15 06:05:22;;;;;;;27.80;20.17;;;11.80;99.90;;;;;;5090941;28;20046;-72
2023/05/15 06:07:48;;;;;;;25.50;20.10;;;11.80;99.90;;;;;;5084648;28;20768;-72
2023/05/15 06:10:14;;;;;;;25.00;20.97;;;11.80;99.90;;;;;;5070591;28;20277;-72
2023/05/15 06:12:40;;;;;;;25.17;20.47;;;11.80;99.90;;;;;;5087126;28;20678;-73
2023/05/15 06:15:06;;;;;;;25.67;20.97;;;11.80;99.90;;;;;;5092530;28;20339;-73
2023/05/15 06:17:32;;;;;;;27.27;20.60;;;11.70;99.90;;;;;;5092959;28;20043;-72
2023/05/15 06:19:58;;;;;;;23.30;19.27;;;11.70;99.90;;;;;;5090572;28;20503;-71
2023/05/15 06:22:24;;;;;;;23.10;19.47;;;11.60;99.90;;;;;;5069442;28;20048;-71
2023/05/15 06:24:49;;;;;;;28.10;20.23;;;11.60;99.90;;;;;;5073708;28;20039;-71
2023/05/15 06:27:15;;;;;;;24.67;18.70;;;11.70;99.90;;;;;;5090999;28;20040;-71
2023/05/15 06:29:41;;;;;;;23.47;18.60;;;11.70;99.90;;;;;;5074585;28;20035;-71
2023/05/15 06:32:07;;;;;;;22.77;18.03;;;11.70;99.90;;;;;;5089909;28;20372;-71
2023/05/15 06:34:32;;;;;;;18.33;15.63;;;11.80;99.90;;;;;;5090279;28;20460;-71
2023/05/15 06:36:58;;;;;;;19.57;15.87;;;12.10;99.90;;;;;;5073432;28;20107;-71
2023/05/15 06:39:24;;;;;;;20.73;15.63;;;12.40;99.90;;;;;;5073641;28;20288;-71
2023/05/15 06:41:52;;;;;;;16.07;14.30;;;12.60;99.90;;;;;;5089669;28;20763;-71
2023/05/15 06:44:18;;;;;;;16.23;13.37;;;12.70;99.90;;;;;;5084642;28;20036;-71
2023/05/15 06:46:44;;;;;;;16.27;13.27;;;12.90;99.90;;;;;;5073971;28;20777;-71
2023/05/15 06:49:09;;;;;;;14.77;12.87;;;13.00;99.90;;;;;;5090330;28;20050;-71
2023/05/15 06:51:35;;;;;;;16.77;13.60;;;13.00;99.90;;;;;;5090193;28;20392;-71
2023/05/15 06:54:01;;;;;;;18.47;14.33;;;12.90;99.90;;;;;;5089127;28;20039;-71
2023/05/15 06:56:27;;;;;;;16.17;14.47;;;12.60;99.90;;;;;;5095061;28;20050;-71
2023/05/15 06:58:53;;;;;;;16.73;14.33;;;12.40;99.90;;;;;;5094186;28;20122;-71
2023/05/15 07:01:18;;;;;;;17.80;14.70;;;12.20;99.90;;;;;;5082283;28;20040;-71
2023/05/15 07:03:44;;;;;;;17.57;15.77;;;12.20;99.90;;;;;;5093300;28;20799;-71
2023/05/15 07:06:10;;;;;;;19.27;15.00;;;12.20;99.90;;;;;;5094199;28;20362;-71
2023/05/15 07:08:36;;;;;;;17.40;15.57;;;12.20;99.90;;;;;;5077355;28;20038;-71
2023/05/15 07:11:01;;;;;;;16.57;14.03;;;12.30;99.90;;;;;;5077204;28;20035;-71
2023/05/15 07:13:27;;;;;;;17.07;14.07;;;12.40;99.90;;;;;;5106293;27;20040;-71
2023/05/15 07:15:53;;;;;;;23.13;16.30;;;12.60;99.90;;;;;;5080649;28;20073;-71
2023/05/15 07:18:18;;;;;;;17.80;15.77;;;12.80;99.90;;;;;;5093539;28;20035;-71
2023/05/15 07:20:44;;;;;;;17.63;15.83;;;13.10;99.90;;;;;;5093560;28;20035;-71
2023/05/15 07:23:10;;;;;;;19.57;15.83;;;13.40;99.90;;;;;;5092257;28;20142;-71
2023/05/15 07:25:36;;;;;;;17.60;15.50;;;13.70;99.90;;;;;;5094022;28;20373;-71
2023/05/15 07:28:01;;;;;;;17.73;14.83;;;14.00;99.90;;;;;;5093175;28;20058;-71
2023/05/15 07:30:27;;;;;;;16.53;14.10;;;14.20;99.90;;;;;;5094206;27;20051;-71
2023/05/15 07:32:53;;;;;;;18.10;15.37;;;14.30;99.90;;;;;;5076011;28;20069;-71
2023/05/15 07:35:18;;;;;;;18.03;15.90;;;14.60;99.90;;;;;;5082134;28;20036;-71
2023/05/15 07:37:45;;;;;;;21.20;16.40;;;14.60;99.90;;;;;;5076609;28;20039;-71
2023/05/15 07:40:11;;;;;;;19.77;15.27;;;14.80;99.90;;;;;;5092014;28;20040;-71
2023/05/15 07:42:38;;;;;;;18.00;16.10;;;15.10;99.90;;;;;;5097185;28;20610;-71
2023/05/15 07:45:07;;;;;;;18.57;15.87;;;15.30;99.90;;;;;;5075823;28;20286;-71
2023/05/15 07:47:34;;;;;;;19.30;15.93;;;15.40;98.60;;;;;;5082742;28;20691;-71
2023/05/15 07:50:00;;;;;;;21.67;19.37;;;15.40;96.40;;;;;;5075653;28;20277;-71
2023/05/15 07:52:25;;;;;;;20.23;18.00;;;15.40;97.60;;;;;;5075991;28;20649;-71
2023/05/15 07:54:51;;;;;;;21.13;18.77;;;15.50;97.80;;;;;;5094017;28;20458;-71
2023/05/15 07:57:17;;;;;;;23.00;18.90;;;15.60;97.00;;;;;;5092393;28;20069;-71
2023/05/15 07:59:43;;;;;;;24.17;19.83;;;15.50;96.30;;;;;;5092699;28;20038;-72
2023/05/15 08:02:08;;;;;;;18.27;16.40;;;15.50;97.90;;;;;;5092259;28;20130;-71
2023/05/15 08:04:34;;;;;;;20.50;18.30;;;15.60;97.40;;;;;;5091686;28;20040;-72
2023/05/15 08:07:00;;;;;;;24.47;19.27;;;15.70;96.10;;;;;;5073994;28;20139;-72
2023/05/15 08:09:26;;;;;;;18.00;15.73;;;15.70;95.60;;;;;;5092368;28;20031;-71
2023/05/15 08:11:55;;;;;;;22.37;17.07;;;15.70;95.70;;;;;;5075517;28;20065;-71
2023/05/15 08:14:20;;;;;;;21.20;17.00;;;15.80;93.40;;;;;;5084984;28;20081;-72
2023/05/15 08:16:51;;;;;;;17.60;15.73;;;15.80;94.10;;;;;;5093880;28;20493;-72
2023/05/15 08:19:18;;;;;;;23.83;21.33;;;16.00;93.50;;;;;;5089582;28;20047;-71
2023/05/15 08:21:43;;;;;;;24.17;20.20;;;15.90;92.30;;;;;;5073808;28;20293;-72
2023/05/15 08:24:09;;;;;;;22.33;19.93;;;15.60;95.40;;;;;;5074078;28;20309;-72
2023/05/15 08:26:35;;;;;;;23.23;20.13;;;15.60;96.40;;;;;;5073062;28;20123;-71
2023/05/15 08:29:00;;;;;;;22.57;18.87;;;15.80;97.30;;;;;;5090180;28;20380;-72
2023/05/15 08:31:26;;;;;;;22.30;17.67;;;15.90;95.30;;;;;;5073354;28;20395;-71
2023/05/15 08:33:52;;;;;;;21.70;18.00;;;16.00;94.60;;;;;;5073500;28;20061;-72
2023/05/15 08:36:18;;;;;;;20.50;17.63;;;16.10;95.20;;;;;;5073150;28;20042;-72
2023/05/15 08:38:44;;;;;;;20.17;17.23;;;16.30;95.30;;;;;;5073144;28;20471;-72
2023/05/15 08:41:27;;;;;;;21.70;17.20;;;16.60;94.60;;;;;;5073473;27;20338;-72
2023/05/15 08:43:54;;;;;;;17.57;15.77;;;17.10;93.30;;;;;;5080658;28;20071;-72
2023/05/15 08:46:22;;;;;;;19.20;14.90;;;17.20;89.40;;;;;;5072224;28;20372;-72
2023/05/15 08:48:48;;;;;;;18.13;14.20;;;17.40;91.00;;;;;;5090214;28;20273;-72
2023/05/15 08:51:15;;;;;;;16.37;14.57;;;17.50;88.40;;;;;;5090292;28;20615;-72
2023/05/15 08:53:42;;;;;;;13.60;12.17;;;17.50;87.10;;;;;;5089974;28;20313;-71
2023/05/15 08:56:08;;;;;;;13.20;11.83;;;17.60;88.80;;;;;;5084418;28;20040;-71
2023/05/15 08:58:33;;;;;;;15.27;11.63;;;17.60;87.70;;;;;;5086609;28;20284;-71
2023/05/15 09:00:59;;;;;;;12.90;11.37;;;17.50;87.60;;;;;;5079383;28;20042;-72
2023/05/15 09:03:25;;;;;;;12.20;10.90;;;17.40;86.20;;;;;;5087784;28;20154;-72
2023/05/15 09:05:54;;;;;;;12.80;11.50;;;17.20;86.20;;;;;;5086322;28;20372;-71
2023/05/15 09:08:22;;;;;;;12.13;10.83;;;17.20;87.60;;;;;;5087596;28;20045;-71
2023/05/15 09:10:48;;;;;;;13.67;10.87;;;17.30;86.70;;;;;;5088606;28;20285;-71
2023/05/15 09:13:14;;;;;;;14.80;11.50;;;17.20;87.10;;;;;;5073424;28;20301;-71
2023/05/15 09:15:41;;;;;;;12.23;11.03;;;17.20;87.00;;;;;;5094586;28;20323;-72
2023/05/15 09:18:07;;;;;;;12.10;10.97;;;17.00;86.00;;;;;;5087119;28;20467;-71
2023/05/15 09:20:35;;;;;;;12.83;11.13;;;16.80;86.70;;;;;;5077613;27;20285;-71
2023/05/15 09:23:03;;;;;;;14.57;11.03;;;17.00;87.30;;;;;;5096649;28;20316;-71
2023/05/15 09:25:43;;;;;;;12.90;11.47;;;17.00;86.10;;;;;;5069249;28;20292;-71
2023/05/15 09:28:23;;;;;;;14.87;11.97;;;17.00;86.10;;;;;;5086145;28;20898;-71
2023/05/15 09:30:48;;;;;;;17.70;13.67;;;16.90;88.20;;;;;;5082288;28;20704;-71
2023/05/15 09:33:15;;;;;;;13.43;12.03;;;17.10;88.90;;;;;;5088397;28;20332;-71
2023/05/15 09:35:41;;;;;;;16.77;12.67;;;17.10;88.80;;;;;;5086474;28;20040;-71
2023/05/15 09:38:11;;;;;;;14.43;12.33;;;17.20;88.40;;;;;;5087261;28;20658;-71
2023/05/15 09:40:38;;;;;;;13.83;12.20;;;17.20;87.50;;;;;;5083915;28;20027;-72
2023/05/15 09:43:04;;;;;;;13.60;12.20;;;17.10;87.70;;;;;;5065830;28;20984;-72
2023/05/15 09:45:30;;;;;;;14.87;12.40;;;17.00;88.40;;;;;;5085904;28;20277;-72
2023/05/15 09:47:59;;;;;;;14.50;12.13;;;17.00;87.90;;;;;;5084990;28;20537;-72
2023/05/15 09:50:35;;;;;;;16.83;12.30;;;17.00;87.50;;;;;;5088030;28;20571;-72
2023/05/15 09:53:01;;;;;;;14.37;12.67;;;17.00;86.50;;;;;;5072058;28;20773;-72
2023/05/15 09:55:27;;;;;;;13.53;12.13;;;17.00;86.20;;;;;;5069860;28;20292;-72
2023/05/15 09:58:09;;;;;;;14.23;11.57;;;16.90;87.60;;;;;;5065163;28;20039;-71
2023/05/15 10:00:37;;;;;;;15.10;12.40;;;17.00;87.30;;;;;;5071275;28;20106;-71
2023/05/15 10:03:03;;;;;;;14.07;11.90;;;16.90;87.60;;;;;;5087662;28;20287;-72
2023/05/15 10:05:30;;;;;;;13.47;12.03;;;16.90;87.50;;;;;;5083640;28;20289;-71
2023/05/15 10:07:57;;;;;;;15.00;13.47;;;16.80;86.60;;;;;;5094891;28;20296;-71
2023/05/15 10:10:23;;;;;;;14.10;12.60;;;16.70;87.60;;;;;;5064436;28;20311;-71
2023/05/15 10:12:51;;;;;;;14.33;12.17;;;16.70;87.00;;;;;;5069451;28;20711;-72
2023/05/15 10:15:17;;;;;;;14.50;12.00;;;16.80;87.00;;;;;;5071664;28;20296;-72
2023/05/15 10:17:48;;;;;;;14.20;12.23;;;16.80;87.50;;;;;;5085762;28;20352;-71
2023/05/15 10:20:16;;;;;;;13.73;11.93;;;16.70;87.60;;;;;;5068996;28;20429;-72
2023/05/15 10:22:46;;;;;;;13.73;12.33;;;16.70;87.50;;;;;;5068139;28;20304;-72
2023/05/15 10:25:34;;;;;;;14.50;11.17;;;16.60;87.60;;;;;;5062628;28;20289;-72
2023/05/15 10:28:00;;;;;;;13.67;12.03;;;16.80;87.40;;;;;;5085135;28;20338;-72
2023/05/15 10:30:27;;;;;;;13.10;11.70;;;16.70;86.10;;;;;;5091673;28;20280;-72
2023/05/15 10:32:54;;;;;;;15.30;12.53;;;16.80;87.20;;;;;;5088164;28;21105;-72
2023/05/15 10:35:21;;;;;;;16.07;12.13;;;16.90;86.80;;;;;;5086284;28;20269;-72
2023/05/15 10:37:49;;;;;;;13.30;12.00;;;17.00;86.00;;;;;;5088837;28;20329;-72
2023/05/15 10:40:16;;;;;;;12.07;10.93;;;17.00;85.20;;;;;;5073483;28;20393;-72
2023/05/15 10:42:46;;;;;;;14.50;12.10;;;17.10;85.90;;;;;;5074364;28;20296;-72
2023/05/15 10:45:12;;;;;;;14.17;11.80;;;17.10;85.60;;;;;;5092888;28;20295;-72
2023/05/15 10:47:40;;;;;;;13.90;12.13;;;17.20;85.20;;;;;;5098195;28;20427;-72
2023/05/15 10:50:06;;;;;;;15.07;11.77;;;17.40;84.90;;;;;;5092880;28;20851;-72
2023/05/15 10:52:35;;;;;;;13.50;11.83;;;17.60;82.90;;;;;;5095668;28;20298;-72
2023/05/15 10:55:02;;;;;;;14.47;11.90;;;17.50;84.50;;;;;;5073525;28;20299;-72
2023/05/15 10:57:28;;;;;;;14.53;11.67;;;17.40;84.10;;;;;;5093922;28;20967;-72
2023/05/15 10:59:55;;;;;;;13.47;12.13;;;17.30;84.00;;;;;;5063517;28;20289;-71
2023/05/15 11:02:28;;;;;;;14.90;12.00;;;17.20;85.70;;;;;;5069953;28;20285;-71
2023/05/15 11:04:59;;;;;;;18.30;12.90;;;17.10;86.30;;;;;;5082571;28;20289;-72
2023/05/15 11:07:28;;;;;;;13.97;12.33;;;16.90;86.50;;;;;;5072354;28;20293;-72
2023/05/15 11:09:55;;;;;;;13.90;12.37;;;16.60;87.60;;;;;;5088835;28;20292;-72
2023/05/15 11:12:24;;;;;;;14.27;12.03;;;16.60;87.60;;;;;;5090207;28;20854;-72
2023/05/15 11:14:56;;;;;;;13.93;12.43;;;16.50;87.70;;;;;;5079397;28;20277;-72
2023/05/15 11:17:25;;;;;;;13.87;11.90;;;16.30;89.20;;;;;;5072861;28;20491;-71
2023/05/15 11:19:51;;;;;;;12.77;11.40;;;16.20;89.00;;;;;;5083780;28;20376;-71
2023/05/15 11:22:26;;;;;;;12.00;9.93;;;16.10;88.50;;;;;;5064916;28;20368;-73
2023/05/15 11:25:00;;;;;;;12.98;10.63;;;16.10;87.90;;;;;;5067551;28;20044;-72
2023/05/15 11:27:48;;;;;;;12.00;10.40;;;15.90;88.80;;;;;;5089484;28;20069;-72
2023/05/15 11:30:16;;;;;;;12.83;10.40;;;15.80;89.20;;;;;;5087843;28;20285;-72
2023/05/15 11:32:53;;;;;;;11.33;9.70;;;15.50;90.80;;;;;;5073157;28;20305;-72
2023/05/15 11:35:28;;;;;;;10.57;9.17;;;15.50;92.40;;;;;;5099881;28;20277;-72
2023/05/15 11:37:57;;;;;;;9.90;8.90;;;15.60;92.30;;;;;;5091477;28;20293;-72
2023/05/15 11:40:25;;;;;;;9.47;8.27;;;15.70;91.00;;;;;;5071940;28;20281;-72
2023/05/15 11:43:04;;;;;;;10.43;8.83;;;15.80;90.00;;;;;;5091096;28;20791;-72
2023/05/15 11:45:38;;;;;;;10.13;7.97;;;15.70;90.60;;;;;;5089186;28;20286;-72
2023/05/15 11:48:06;;;;;;;9.52;8.48;;;15.80;91.00;;;;;;5076655;27;20293;-72
2023/05/15 11:50:33;;;;;;;11.13;8.73;;;15.80;89.50;;;;;;5094815;28;20055;-72
2023/05/15 11:53:07;;;;;;;12.10;9.67;;;15.90;89.50;;;;;;5076264;28;20312;-72
2023/05/15 11:55:34;;;;;;;10.20;8.13;;;15.90;89.90;;;;;;5091309;28;20281;-72
2023/05/15 11:58:01;;;;;;;11.03;9.27;;;15.60;89.50;;;;;;5075549;28;20278;-72
2023/05/15 12:00:27;;;;;;;10.43;9.13;;;15.50;89.90;;;;;;5076298;28;20330;-72
2023/05/15 12:02:53;;;;;;;9.37;8.47;;;15.40;90.50;;;;;;5075683;28;20368;-72
2023/05/15 12:05:18;;;;;;;10.90;9.80;;;15.50;90.30;;;;;;5076213;28;20036;-72
2023/05/15 12:07:45;;;;;;;12.03;10.50;;;15.50;91.90;;;;;;5092624;28;20046;-72
2023/05/15 12:10:12;;;;;;;10.03;9.03;;;15.60;91.80;;;;;;5093476;28;20078;-72
2023/05/15 12:12:42;;;;;;;10.57;9.20;;;15.70;92.30;;;;;;5085569;28;20301;-72
2023/05/15 12:15:12;;;;;;;11.80;10.17;;;15.90;91.70;;;;;;5094891;28;20293;-72
2023/05/15 12:17:42;;;;;;;11.07;9.77;;;15.90;90.50;;;;;;5092270;28;20410;-72
2023/05/15 12:20:10;;;;;;;15.93;12.40;;;15.70;89.80;;;;;;5092863;28;20419;-72
2023/05/15 12:22:41;;;;;;;13.17;11.83;;;15.60;90.80;;;;;;5092114;28;20339;-72
2023/05/15 12:25:08;;;;;;;16.27;13.47;;;15.40;92.20;;;;;;5079370;27;20293;-72
2023/05/15 12:27:35;;;;;;;18.03;14.17;;;15.40;93.00;;;;;;5099179;27;20285;-70
2023/05/15 12:30:02;;;;;;;17.57;15.27;;;15.40;94.10;;;;;;5084136;27;20292;-70
2023/05/15 12:32:33;;;;;;;20.43;15.90;;;15.20;95.00;;;;;;5066804;28;20338;-71
2023/05/15 12:35:03;;;;;;;17.37;14.93;;;15.10;96.30;;;;;;5087595;28;20769;-71